Crescent City, CA (95531)

2:06 PM PST on December 06, 2016 (GMT -0800)
back yard | | Change Station

Elev 62 ft 41.79 °N, 124.19 °W | Updated 6 seconds ago

Clear
Clear
49.5 °F
Feels Like 47 °F
N
7.2
Wind Variable Wind from WSW
Gusts 9.8 mph

Today
High -- | Low -- °F
--% Chance of Precip.
Yesterday
High -- | Low -- °F
Precip. -- in
Pressure 30.13 in
Visibility 10.0 miles
Clouds Clear
Windchill 47 °F
Dew Point 42 °F
Humidity 76%
Rainfall 0.18 in
Snow Depth Not available.
7:30 AM 4:45 PM
Waxing Crescent, 45% visible
METAR KCEC 062156Z AUTO 33006KT 10SM CLR 09/03 A3012 RMK AO2 SLP202 T00890033
Pressure 30.13 in
Visibility 10.0 miles
Clouds Clear
Windchill 47 °F
Dew Point 42 °F
Humidity 76%
Rainfall 0.18 in
Snow Depth Not available.
7:30 AM 4:45 PM
Waxing Crescent, 45% visible
METAR KCEC 062156Z AUTO 33006KT 10SM CLR 09/03 A3012 RMK AO2 SLP202 T00890033

10-Day Weather Forecast

Almanac

Astronomy

Dec. 06, 2016 Rise Set
Actual Time
Civil Twilight
Nautical Twilight
Astronomical Twilight
Moon
Length of Visible Light
Length of Day
Tomorrow will be .
, % of the Moon is Illuminated

Today's Extremes

State Highs State Lows

Community

WunderPhotos

Upload Photos

1,956,037 photos uploaded!

WunderBlog® & News

Nearby

Air Quality

  Air Quality AQ Index Pollutant
Not available.

Snow Depth

Station Depth Elevation

Earthquake Activity

City Distance Mag. Time & Date
Minimum magnitude displayed is 2.5.

Coastal Water Temperatures

Place Temperature

Stations

Nearby Weather Stations

Station Location Temp. Windchill Dew Point Humidity Wind Precip. Elev Updated Type
                   

Watches & Warnings

There are currently no watches in effect.